Time;durP1;ratioP1;P1;durP2;ratioP2;P2;SDS_P1;SDS_P2;PMS_P1;PMS_P2;Temp;Humidity;BMP_temperature;BMP_pressure;BME280_temperature;BME280_humidity;BME280_pressure;Samples;Min_cycle;Max_cycle;Signal;HPM_P1;HPM_P2
2020/12/17 00:02:05;;;;;;;21.83;10.65;;;;;;;;;;5095323;28;20052;-18
2020/12/17 00:04:31;;;;;;;18.77;11.30;;;;;;;;;;5095474;28;20035;-19
2020/12/17 00:06:56;;;;;;;18.98;10.52;;;;;;;;;;5095350;28;20660;-19
2020/12/17 00:09:22;;;;;;;14.15;9.32;;;;;;;;;;5095206;28;20043;-18
2020/12/17 00:11:47;;;;;;;25.98;10.02;;;;;;;;;;5093777;28;20024;-20
2020/12/17 00:14:14;;;;;;;19.77;10.35;;;;;;;;;;5095276;28;20394;-18
2020/12/17 00:16:39;;;;;;;18.08;9.52;;;;;;;;;;5095198;28;20094;-21
2020/12/17 00:19:05;;;;;;;18.67;10.38;;;;;;;;;;5095351;28;20177;-20
2020/12/17 00:21:30;;;;;;;16.77;9.32;;;;;;;;;;5076814;28;20016;-21
2020/12/17 00:23:56;;;;;;;16.75;9.80;;;;;;;;;;5094807;28;20039;-20
2020/12/17 00:26:25;;;;;;;17.52;9.82;;;;;;;;;;5095003;28;20097;-17
2020/12/17 00:28:51;;;;;;;15.82;9.73;;;;;;;;;;5094867;28;20388;-21
2020/12/17 00:31:17;;;;;;;16.23;9.85;;;;;;;;;;5094769;28;20012;-18
2020/12/17 00:33:42;;;;;;;17.25;8.88;;;;;;;;;;5094688;28;20389;-18
2020/12/17 00:36:07;;;;;;;22.17;12.10;;;;;;;;;;5094646;28;20024;-19
2020/12/17 00:38:33;;;;;;;17.02;9.20;;;;;;;;;;5094616;28;20135;-19
2020/12/17 00:40:58;;;;;;;17.58;9.65;;;;;;;;;;5092866;28;20052;-20
2020/12/17 00:43:24;;;;;;;22.13;10.98;;;;;;;;;;5094858;28;20024;-20
2020/12/17 00:45:49;;;;;;;23.25;10.30;;;;;;;;;;5094433;28;20470;-19
2020/12/17 00:48:15;;;;;;;20.77;10.48;;;;;;;;;;5094538;28;20126;-19
2020/12/17 00:50:40;;;;;;;19.27;10.27;;;;;;;;;;5094203;28;20100;-19
2020/12/17 00:53:05;;;;;;;18.08;10.45;;;;;;;;;;5093131;28;20039;-19
2020/12/17 00:55:31;;;;;;;22.05;10.00;;;;;;;;;;5094255;28;20115;-19
2020/12/17 00:57:56;;;;;;;20.60;10.70;;;;;;;;;;5094321;28;20016;-19
2020/12/17 01:00:22;;;;;;;18.00;9.57;;;;;;;;;;5094324;28;20032;-21
2020/12/17 01:02:47;;;;;;;14.65;9.00;;;;;;;;;;5092779;28;20046;-19
2020/12/17 01:05:13;;;;;;;15.70;8.63;;;;;;;;;;5094404;28;20028;-21
2020/12/17 01:07:38;;;;;;;20.83;10.20;;;;;;;;;;5094115;28;20471;-20
2020/12/17 01:10:04;;;;;;;14.20;9.13;;;;;;;;;;5093151;28;20024;-20
2020/12/17 01:12:30;;;;;;;17.10;9.05;;;;;;;;;;5094175;28;20044;-20
2020/12/17 01:14:55;;;;;;;15.30;10.07;;;;;;;;;;5092727;28;20023;-20
2020/12/17 01:17:21;;;;;;;16.42;9.23;;;;;;;;;;5094293;28;20019;-20
2020/12/17 01:19:46;;;;;;;27.05;14.30;;;;;;;;;;5093725;28;20024;-19
2020/12/17 01:22:12;;;;;;;20.25;10.27;;;;;;;;;;5094119;28;20019;-19
2020/12/17 01:24:37;;;;;;;21.02;10.05;;;;;;;;;;5093621;28;20424;-19
2020/12/17 01:27:03;;;;;;;20.40;9.50;;;;;;;;;;5093719;28;20210;-22
2020/12/17 01:29:28;;;;;;;17.38;9.02;;;;;;;;;;5092487;28;20020;-19
2020/12/17 01:31:59;;;;;;;15.57;9.45;;;;;;;;;;5093888;28;20485;-19
2020/12/17 01:34:24;;;;;;;19.42;11.68;;;;;;;;;;5093550;28;20032;-19
2020/12/17 01:36:54;;;;;;;18.38;10.25;;;;;;;;;;5092247;28;20026;-19
2020/12/17 01:39:19;;;;;;;14.45;9.55;;;;;;;;;;5093562;28;20020;-19
2020/12/17 01:41:44;;;;;;;16.17;9.23;;;;;;;;;;5093306;28;20520;-19
2020/12/17 01:44:10;;;;;;;18.25;10.35;;;;;;;;;;5093415;28;20036;-19
2020/12/17 01:46:35;;;;;;;19.13;10.23;;;;;;;;;;5091942;28;20020;-18
2020/12/17 01:49:01;;;;;;;16.63;9.07;;;;;;;;;;5093316;28;20499;-19
2020/12/17 01:51:27;;;;;;;15.23;9.73;;;;;;;;;;5092932;28;20040;-19
2020/12/17 01:53:54;;;;;;;15.75;8.93;;;;;;;;;;5093018;28;20035;-19
2020/12/17 01:56:24;;;;;;;13.57;9.10;;;;;;;;;;5091871;28;20023;-19
2020/12/17 01:59:08;;;;;;;16.85;8.80;;;;;;;;;;5092114;28;20493;-19
2020/12/17 02:01:34;;;;;;;18.70;9.52;;;;;;;;;;5092917;28;20028;-19
2020/12/17 02:04:00;;;;;;;14.32;8.80;;;;;;;;;;5093284;28;20378;-18
2020/12/17 02:06:26;;;;;;;15.77;9.52;;;;;;;;;;5093024;28;20084;-19
2020/12/17 02:08:52;;;;;;;17.45;9.70;;;;;;;;;;5092931;28;20091;-19
2020/12/17 02:11:18;;;;;;;15.27;9.25;;;;;;;;;;5091785;28;20036;-18
2020/12/17 02:13:45;;;;;;;16.65;9.93;;;;;;;;;;5092872;28;20016;-19
2020/12/17 02:16:11;;;;;;;20.20;10.52;;;;;;;;;;5092901;28;20107;-20
2020/12/17 02:18:36;;;;;;;15.90;9.07;;;;;;;;;;5092775;28;20055;-19
2020/12/17 02:21:02;;;;;;;14.52;8.52;;;;;;;;;;5092792;28;20379;-20
2020/12/17 02:23:27;;;;;;;18.50;9.57;;;;;;;;;;5093007;28;20041;-19
2020/12/17 02:25:53;;;;;;;15.80;9.43;;;;;;;;;;5092578;28;20518;-18
2020/12/17 02:28:19;;;;;;;23.52;10.05;;;;;;;;;;5092720;28;20048;-20
2020/12/17 02:30:45;;;;;;;16.48;10.70;;;;;;;;;;5091575;28;20028;-19
2020/12/17 02:33:10;;;;;;;16.10;9.32;;;;;;;;;;5091378;28;20053;-20
2020/12/17 02:35:36;;;;;;;16.73;9.90;;;;;;;;;;5092497;28;20032;-20
2020/12/17 02:38:02;;;;;;;18.38;10.38;;;;;;;;;;5091427;28;20097;-20
2020/12/17 02:40:28;;;;;;;21.83;10.43;;;;;;;;;;5092574;28;20111;-19
2020/12/17 02:42:53;;;;;;;20.38;10.20;;;;;;;;;;5091186;28;20070;-18
2020/12/17 02:45:18;;;;;;;17.38;8.68;;;;;;;;;;5092419;28;20044;-18
2020/12/17 02:47:44;;;;;;;15.43;9.68;;;;;;;;;;5092443;28;20024;-18
2020/12/17 02:50:09;;;;;;;15.05;9.05;;;;;;;;;;5092314;28;20048;-19
2020/12/17 02:52:35;;;;;;;17.27;9.32;;;;;;;;;;5092519;28;20028;-23
2020/12/17 02:55:00;;;;;;;17.30;9.40;;;;;;;;;;5092529;28;20054;-18
2020/12/17 02:57:26;;;;;;;14.45;8.70;;;;;;;;;;5091216;28;20020;-19
2020/12/17 02:59:51;;;;;;;13.60;8.55;;;;;;;;;;5090923;28;20024;-18
2020/12/17 03:02:16;;;;;;;17.75;10.25;;;;;;;;;;5092613;28;20048;-20
2020/12/17 03:04:42;;;;;;;22.98;10.10;;;;;;;;;;5093787;28;20498;-19
2020/12/17 03:07:07;;;;;;;16.23;8.50;;;;;;;;;;5096465;28;20027;-18
2020/12/17 03:09:32;;;;;;;14.75;9.13;;;;;;;;;;5096376;28;20036;-20
2020/12/17 03:11:58;;;;;;;18.52;9.23;;;;;;;;;;5096537;28;20017;-19
2020/12/17 03:14:23;;;;;;;16.27;8.98;;;;;;;;;;5096359;28;20434;-19
2020/12/17 03:16:49;;;;;;;16.00;9.07;;;;;;;;;;5095227;28;20091;-19
2020/12/17 03:19:14;;;;;;;20.13;9.73;;;;;;;;;;5096333;28;20470;-19
2020/12/17 03:21:39;;;;;;;16.48;9.02;;;;;;;;;;5096244;28;20024;-19
2020/12/17 03:24:05;;;;;;;14.10;9.18;;;;;;;;;;5096077;28;20039;-19
2020/12/17 03:26:30;;;;;;;17.33;8.93;;;;;;;;;;5096174;28;20089;-19
2020/12/17 03:28:56;;;;;;;14.20;8.63;;;;;;;;;;5094653;28;20032;-19
2020/12/17 03:31:21;;;;;;;15.88;9.20;;;;;;;;;;5095967;28;20027;-19
2020/12/17 03:33:47;;;;;;;16.77;8.73;;;;;;;;;;5095881;28;20118;-18
2020/12/17 03:36:12;;;;;;;16.17;9.00;;;;;;;;;;5096063;28;20099;-19
2020/12/17 03:38:37;;;;;;;10.75;7.57;;;;;;;;;;5094578;28;20028;-18
2020/12/17 03:41:03;;;;;;;13.30;7.93;;;;;;;;;;5094544;28;20055;-20
2020/12/17 03:43:29;;;;;;;12.30;8.23;;;;;;;;;;5094538;28;20374;-18
2020/12/17 03:45:54;;;;;;;11.07;7.88;;;;;;;;;;5095884;28;20411;-19
2020/12/17 03:48:19;;;;;;;16.30;7.97;;;;;;;;;;5095623;28;20395;-19
2020/12/17 03:50:45;;;;;;;16.15;8.27;;;;;;;;;;5095426;28;20075;-19
2020/12/17 03:53:10;;;;;;;15.38;8.40;;;;;;;;;;5095633;28;20432;-19
2020/12/17 03:55:35;;;;;;;12.77;7.53;;;;;;;;;;5095410;28;20020;-20
2020/12/17 03:58:01;;;;;;;14.27;7.70;;;;;;;;;;5094574;28;20028;-20
2020/12/17 04:00:26;;;;;;;14.52;8.35;;;;;;;;;;5094210;28;20055;-19
2020/12/17 04:02:52;;;;;;;12.45;7.43;;;;;;;;;;5095524;28;20028;-19
2020/12/17 04:05:17;;;;;;;14.13;8.20;;;;;;;;;;5095322;28;20368;-19
2020/12/17 04:07:42;;;;;;;13.98;8.45;;;;;;;;;;5095244;28;20020;-19
2020/12/17 04:10:08;;;;;;;13.75;9.18;;;;;;;;;;5093967;28;20024;-19
2020/12/17 04:12:33;;;;;;;14.48;8.20;;;;;;;;;;5093856;28;20024;-18
2020/12/17 04:14:59;;;;;;;16.05;8.77;;;;;;;;;;5094668;28;20020;-21
2020/12/17 04:17:24;;;;;;;18.05;8.20;;;;;;;;;;5095077;28;20558;-19
2020/12/17 04:19:50;;;;;;;16.55;9.20;;;;;;;;;;5095056;28;20452;-19
2020/12/17 04:22:18;;;;;;;20.80;10.88;;;;;;;;;;5095008;28;20028;-19
2020/12/17 04:24:46;;;;;;;14.32;8.48;;;;;;;;;;5095020;28;20032;-20
2020/12/17 04:27:12;;;;;;;12.75;7.20;;;;;;;;;;5094927;28;20031;-19
2020/12/17 04:29:38;;;;;;;16.63;9.50;;;;;;;;;;5094829;28;20020;-18
2020/12/17 04:32:03;;;;;;;18.70;10.50;;;;;;;;;;5094736;28;20036;-19
2020/12/17 04:34:29;;;;;;;13.52;8.60;;;;;;;;;;5095117;28;20018;-18
2020/12/17 04:36:54;;;;;;;14.82;8.13;;;;;;;;;;5093377;28;20058;-19
2020/12/17 04:39:22;;;;;;;16.40;9.48;;;;;;;;;;5094758;28;20020;-20
2020/12/17 04:41:51;;;;;;;14.93;8.15;;;;;;;;;;5093246;28;20028;-19
2020/12/17 04:44:17;;;;;;;12.80;8.32;;;;;;;;;;5094827;28;20039;-18
2020/12/17 04:46:48;;;;;;;13.52;8.20;;;;;;;;;;5093203;28;20196;-20
2020/12/17 04:49:17;;;;;;;22.20;9.93;;;;;;;;;;5094352;28;20046;-18
2020/12/17 04:51:46;;;;;;;16.58;9.80;;;;;;;;;;5094673;28;20096;-19
2020/12/17 04:54:13;;;;;;;16.90;9.65;;;;;;;;;;5093203;28;20028;-20
2020/12/17 04:56:41;;;;;;;13.63;8.18;;;;;;;;;;5093073;28;20036;-19
2020/12/17 04:59:08;;;;;;;19.40;8.75;;;;;;;;;;5094453;28;20100;-19
2020/12/17 05:01:36;;;;;;;15.63;9.10;;;;;;;;;;5094080;28;20043;-19
2020/12/17 05:04:02;;;;;;;16.35;8.10;;;;;;;;;;5092994;28;20089;-20
2020/12/17 05:06:28;;;;;;;16.27;8.88;;;;;;;;;;5094151;28;20462;-19
2020/12/17 05:08:53;;;;;;;14.55;8.48;;;;;;;;;;5092764;28;20021;-19
2020/12/17 05:11:19;;;;;;;14.95;7.93;;;;;;;;;;5094190;28;20028;-19
2020/12/17 05:13:45;;;;;;;16.55;8.73;;;;;;;;;;5093947;28;20012;-19
2020/12/17 05:16:10;;;;;;;13.13;7.18;;;;;;;;;;5092686;28;20036;-19
2020/12/17 05:18:36;;;;;;;10.90;6.30;;;;;;;;;;5093925;28;20019;-19
2020/12/17 05:21:02;;;;;;;11.75;6.50;;;;;;;;;;5093876;28;20032;-18
2020/12/17 05:23:28;;;;;;;12.23;6.95;;;;;;;;;;5093879;28;20035;-19
2020/12/17 05:25:54;;;;;;;10.40;6.72;;;;;;;;;;5092374;28;20043;-18
2020/12/17 05:28:19;;;;;;;12.25;7.35;;;;;;;;;;5092630;28;20039;-20
2020/12/17 05:30:45;;;;;;;11.27;6.63;;;;;;;;;;5093888;28;20495;-18
2020/12/17 05:33:10;;;;;;;11.95;6.70;;;;;;;;;;5093681;28;20378;-19
2020/12/17 05:35:37;;;;;;;11.48;6.55;;;;;;;;;;5092248;28;20067;-18
2020/12/17 05:38:06;;;;;;;11.15;6.63;;;;;;;;;;5093605;28;20016;-19
2020/12/17 05:40:38;;;;;;;13.23;6.72;;;;;;;;;;5092165;28;20027;-19
2020/12/17 05:43:04;;;;;;;14.20;6.80;;;;;;;;;;5092272;28;20112;-19
2020/12/17 05:45:30;;;;;;;10.50;6.80;;;;;;;;;;5093439;28;20541;-19
2020/12/17 05:48:14;;;;;;;10.38;6.63;;;;;;;;;;5093328;28;20016;-19
2020/12/17 05:50:48;;;;;;;10.95;5.78;;;;;;;;;;5093024;28;20379;-19
2020/12/17 05:53:14;;;;;;;13.45;6.07;;;;;;;;;;5093562;28;20109;-19
2020/12/17 05:55:40;;;;;;;10.23;5.95;;;;;;;;;;5093193;28;20081;-21
2020/12/17 05:58:05;;;;;;;7.40;5.13;;;;;;;;;;5093242;28;20024;-19
2020/12/17 06:00:31;;;;;;;10.18;6.07;;;;;;;;;;5093154;28;20529;-19
2020/12/17 06:02:56;;;;;;;11.32;6.00;;;;;;;;;;5093314;28;20070;-18
2020/12/17 06:05:22;;;;;;;13.52;7.40;;;;;;;;;;5091797;28;20028;-19
2020/12/17 06:07:51;;;;;;;12.75;7.32;;;;;;;;;;5091657;28;20031;-19
2020/12/17 06:10:17;;;;;;;8.80;6.13;;;;;;;;;;5093086;28;20463;-18
2020/12/17 06:12:43;;;;;;;14.68;6.45;;;;;;;;;;5092791;28;20034;-18
2020/12/17 06:15:09;;;;;;;16.45;7.35;;;;;;;;;;5093237;28;20114;-19
2020/12/17 06:17:38;;;;;;;13.82;7.78;;;;;;;;;;5074619;28;20051;-18
2020/12/17 06:20:07;;;;;;;13.40;6.97;;;;;;;;;;5091486;28;20035;-19
2020/12/17 06:22:33;;;;;;;12.32;6.50;;;;;;;;;;5092885;28;20023;-20
2020/12/17 06:24:59;;;;;;;12.73;6.85;;;;;;;;;;5091267;28;20024;-19
2020/12/17 06:27:31;;;;;;;12.18;7.07;;;;;;;;;;5092857;28;20102;-19
2020/12/17 06:30:06;;;;;;;13.60;7.25;;;;;;;;;;5091441;28;20034;-19
2020/12/17 06:32:35;;;;;;;13.75;6.15;;;;;;;;;;5092694;28;20493;-18
2020/12/17 06:35:02;;;;;;;11.25;6.90;;;;;;;;;;5092624;28;20012;-18
2020/12/17 06:37:29;;;;;;;11.77;6.78;;;;;;;;;;5092878;28;20032;-19
2020/12/17 06:39:54;;;;;;;10.95;6.65;;;;;;;;;;5090824;28;20027;-18
2020/12/17 06:42:32;;;;;;;11.30;6.72;;;;;;;;;;5092567;28;20504;-18
2020/12/17 06:44:57;;;;;;;10.77;6.63;;;;;;;;;;5091212;28;20058;-18
2020/12/17 06:47:26;;;;;;;10.88;6.00;;;;;;;;;;5091168;28;20455;-19
2020/12/17 06:49:52;;;;;;;8.68;6.22;;;;;;;;;;5092219;28;20051;-20
2020/12/17 06:52:17;;;;;;;8.70;5.63;;;;;;;;;;5091107;28;20031;-20
2020/12/17 06:54:43;;;;;;;9.52;6.97;;;;;;;;;;5092527;28;20028;-18
2020/12/17 06:57:08;;;;;;;15.52;6.63;;;;;;;;;;5092499;28;20422;-18
2020/12/17 06:59:34;;;;;;;10.93;6.95;;;;;;;;;;5092674;28;20039;-20
2020/12/17 07:02:00;;;;;;;9.63;6.07;;;;;;;;;;5092256;28;20463;-19
2020/12/17 07:04:44;;;;;;;12.07;6.45;;;;;;;;;;5091024;28;20115;-19
2020/12/17 07:07:16;;;;;;;9.70;6.38;;;;;;;;;;5092462;28;20085;-19
2020/12/17 07:09:42;;;;;;;13.35;6.07;;;;;;;;;;5092124;28;20032;-19
2020/12/17 07:12:11;;;;;;;8.77;5.65;;;;;;;;;;5092551;28;20016;-18
2020/12/17 07:14:37;;;;;;;8.90;6.10;;;;;;;;;;5092081;28;20030;-18
2020/12/17 07:17:04;;;;;;;7.88;6.00;;;;;;;;;;5090946;28;20020;-19
2020/12/17 07:19:30;;;;;;;8.05;5.35;;;;;;;;;;5092236;28;20020;-19
2020/12/17 07:21:59;;;;;;;7.00;4.63;;;;;;;;;;5092225;28;20024;-19
2020/12/17 07:24:32;;;;;;;8.70;5.65;;;;;;;;;;5091137;28;20024;-19
2020/12/17 07:26:58;;;;;;;8.35;5.88;;;;;;;;;;5092178;28;20032;-20
2020/12/17 07:29:53;;;;;;;11.70;6.63;;;;;;;;;;5092090;28;20099;-20
2020/12/17 07:32:28;;;;;;;8.93;5.53;;;;;;;;;;5074383;28;20131;-18
2020/12/17 07:34:58;;;;;;;8.30;5.93;;;;;;;;;;5092058;28;20028;-18
2020/12/17 07:37:50;;;;;;;9.38;5.75;;;;;;;;;;5090735;28;20228;-19
2020/12/17 07:40:21;;;;;;;8.88;5.95;;;;;;;;;;5088186;28;20083;-18
2020/12/17 07:42:59;;;;;;;9.93;6.00;;;;;;;;;;5091968;28;20119;-20
2020/12/17 07:45:41;;;;;;;11.75;7.00;;;;;;;;;;5091790;28;20470;-20
2020/12/17 07:51:41;;;;;;;7.82;5.65;;;;;;;;;;5094678;28;20036;-19
2020/12/17 07:54:07;;;;;;;7.57;5.18;;;;;;;;;;5095718;28;20040;-18
2020/12/17 07:56:32;;;;;;;9.10;5.63;;;;;;;;;;5095077;28;20360;-19
2020/12/17 07:59:01;;;;;;;7.38;5.28;;;;;;;;;;5094100;28;20039;-20
2020/12/17 08:01:27;;;;;;;8.98;5.28;;;;;;;;;;5094154;28;20073;-19
2020/12/17 08:03:52;;;;;;;9.65;6.40;;;;;;;;;;5095600;28;20103;-21
2020/12/17 08:06:18;;;;;;;7.72;5.45;;;;;;;;;;5095620;28;20491;-20
2020/12/17 08:08:43;;;;;;;10.27;6.47;;;;;;;;;;5095271;28;20436;-19
2020/12/17 08:11:09;;;;;;;9.25;6.00;;;;;;;;;;5095283;28;20039;-20
2020/12/17 08:13:35;;;;;;;8.98;5.25;;;;;;;;;;5093934;28;20067;-18
2020/12/17 08:16:04;;;;;;;9.90;5.78;;;;;;;;;;5095173;28;20098;-18
2020/12/17 08:18:31;;;;;;;9.00;5.78;;;;;;;;;;5095254;28;20051;-20
2020/12/17 08:21:15;;;;;;;7.40;5.20;;;;;;;;;;5095048;28;20077;-20
2020/12/17 08:23:41;;;;;;;8.55;5.63;;;;;;;;;;5095375;28;20418;-18
2020/12/17 08:26:09;;;;;;;7.47;5.13;;;;;;;;;;5094905;28;20465;-19
2020/12/17 08:28:36;;;;;;;11.45;5.72;;;;;;;;;;5094928;28;20024;-18
2020/12/17 08:31:05;;;;;;;9.13;5.57;;;;;;;;;;5094902;28;20500;-20
2020/12/17 08:33:33;;;;;;;7.75;5.28;;;;;;;;;;5093565;28;20508;-18
2020/12/17 08:36:21;;;;;;;8.38;5.47;;;;;;;;;;5095042;28;20103;-19
2020/12/17 08:38:59;;;;;;;6.68;4.60;;;;;;;;;;5095004;28;20028;-18
2020/12/17 08:41:26;;;;;;;7.47;4.70;;;;;;;;;;5093653;28;20375;-19
2020/12/17 08:43:53;;;;;;;8.23;5.25;;;;;;;;;;5094620;28;20062;-17
2020/12/17 08:46:18;;;;;;;8.27;5.47;;;;;;;;;;5094846;28;20066;-18
2020/12/17 08:48:45;;;;;;;6.13;4.38;;;;;;;;;;5093329;28;20016;-19
2020/12/17 08:51:11;;;;;;;6.43;4.35;;;;;;;;;;5094390;28;20637;-19
2020/12/17 08:53:39;;;;;;;7.15;4.28;;;;;;;;;;5094528;28;20161;-19
2020/12/17 08:56:09;;;;;;;8.57;4.28;;;;;;;;;;5094411;28;20028;-19
2020/12/17 08:58:45;;;;;;;11.00;7.25;;;;;;;;;;5093407;28;20020;-18
2020/12/17 09:01:14;;;;;;;8.23;4.93;;;;;;;;;;5094259;28;20024;-19
2020/12/17 09:03:46;;;;;;;9.10;4.85;;;;;;;;;;5094238;28;20474;-18
2020/12/17 09:06:12;;;;;;;6.65;4.45;;;;;;;;;;5094180;28;20040;-19
2020/12/17 09:08:38;;;;;;;6.88;4.65;;;;;;;;;;5094114;28;20027;-19
2020/12/17 09:11:04;;;;;;;5.50;4.32;;;;;;;;;;5094149;28;20046;-18
2020/12/17 09:13:29;;;;;;;8.93;4.68;;;;;;;;;;5092932;28;20459;-18
2020/12/17 09:15:56;;;;;;;8.05;4.82;;;;;;;;;;5093848;28;20173;-20
2020/12/17 09:18:21;;;;;;;8.40;4.97;;;;;;;;;;5094074;28;20020;-19
2020/12/17 09:20:46;;;;;;;6.40;4.95;;;;;;;;;;5092527;28;20077;-19
2020/12/17 09:23:12;;;;;;;6.63;3.97;;;;;;;;;;5093866;28;20016;-20
2020/12/17 09:25:38;;;;;;;7.38;4.30;;;;;;;;;;5093932;28;20039;-19
2020/12/17 09:28:03;;;;;;;9.27;4.43;;;;;;;;;;5093818;28;20023;-19
2020/12/17 09:30:32;;;;;;;6.90;5.10;;;;;;;;;;5093653;28;20044;-18
2020/12/17 09:33:03;;;;;;;9.55;4.63;;;;;;;;;;5093917;28;20077;-19
2020/12/17 09:35:30;;;;;;;6.80;4.57;;;;;;;;;;5093662;28;20494;-19
2020/12/17 09:37:58;;;;;;;6.13;4.07;;;;;;;;;;5093532;28;20509;-23
2020/12/17 09:40:24;;;;;;;10.80;4.97;;;;;;;;;;5093541;28;20498;-18
2020/12/17 09:43:01;;;;;;;8.40;5.18;;;;;;;;;;5093516;28;20012;-19
2020/12/17 09:45:26;;;;;;;7.13;4.60;;;;;;;;;;5092110;28;20036;-19
2020/12/17 09:47:52;;;;;;;7.82;5.20;;;;;;;;;;5092108;28;20016;-19
2020/12/17 09:50:18;;;;;;;7.93;4.90;;;;;;;;;;5093274;28;20044;-20
2020/12/17 09:52:44;;;;;;;8.40;5.47;;;;;;;;;;5093250;28;20034;-19
2020/12/17 09:55:13;;;;;;;8.00;5.30;;;;;;;;;;5093614;28;20386;-19
2020/12/17 09:57:40;;;;;;;8.88;5.55;;;;;;;;;;5091867;28;20012;-18
2020/12/17 10:00:06;;;;;;;6.95;5.13;;;;;;;;;;5093078;28;20493;-21
2020/12/17 10:02:37;;;;;;;12.50;5.70;;;;;;;;;;5092792;28;20012;-18
2020/12/17 10:05:03;;;;;;;8.02;5.38;;;;;;;;;;5093360;28;20378;-19
2020/12/17 10:07:29;;;;;;;11.38;5.45;;;;;;;;;;5093056;28;20016;-19
2020/12/17 10:09:54;;;;;;;7.25;4.78;;;;;;;;;;5092971;28;20039;-18
2020/12/17 10:12:20;;;;;;;6.68;5.25;;;;;;;;;;5093024;28;20477;-18
2020/12/17 10:14:45;;;;;;;6.63;4.20;;;;;;;;;;5091021;28;20032;-19
2020/12/17 10:17:10;;;;;;;7.95;4.20;;;;;;;;;;5093211;28;20024;-17
2020/12/17 10:19:36;;;;;;;6.28;4.47;;;;;;;;;;5092909;28;20523;-19
2020/12/17 10:22:02;;;;;;;9.93;6.15;;;;;;;;;;5092628;28;20020;-18
2020/12/17 10:24:27;;;;;;;9.38;6.00;;;;;;;;;;5092779;28;20032;-20
2020/12/17 10:26:53;;;;;;;32.15;12.85;;;;;;;;;;5092709;28;20035;-19
2020/12/17 10:29:18;;;;;;;7.07;5.28;;;;;;;;;;5092698;28;20350;-19
2020/12/17 10:31:47;;;;;;;9.63;6.75;;;;;;;;;;4727595;28;10000452;-21
2020/12/17 10:34:14;;;;;;;8.07;6.20;;;;;;;;;;5107900;28;20020;-19
2020/12/17 10:36:41;;;;;;;7.13;5.68;;;;;;;;;;5109506;28;20545;-20
2020/12/17 10:39:08;;;;;;;9.90;6.47;;;;;;;;;;5109731;28;20032;-21
2020/12/17 10:41:39;;;;;;;8.82;5.40;;;;;;;;;;5109631;28;20027;-20
2020/12/17 10:44:07;;;;;;;8.10;5.50;;;;;;;;;;5108266;28;20082;-21
2020/12/17 10:46:35;;;;;;;6.88;4.20;;;;;;;;;;5109319;28;20027;-20
2020/12/17 10:49:02;;;;;;;5.70;4.03;;;;;;;;;;5109013;28;20027;-21
2020/12/17 10:51:27;;;;;;;5.40;4.30;;;;;;;;;;5107289;28;20467;-21
2020/12/17 10:53:53;;;;;;;7.63;4.32;;;;;;;;;;5109121;28;20023;-21
2020/12/17 10:56:19;;;;;;;4.93;3.70;;;;;;;;;;5108683;28;20462;-19
2020/12/17 10:58:44;;;;;;;6.10;3.97;;;;;;;;;;5108966;28;20053;-19
2020/12/17 11:01:10;;;;;;;8.95;4.45;;;;;;;;;;5095960;28;20024;-19
2020/12/17 11:03:35;;;;;;;6.22;4.75;;;;;;;;;;5089403;28;20060;-19
2020/12/17 11:06:01;;;;;;;7.22;4.70;;;;;;;;;;5088700;28;20598;-21
2020/12/17 11:08:27;;;;;;;8.85;4.85;;;;;;;;;;5088279;28;20028;-20
2020/12/17 11:10:53;;;;;;;6.50;4.63;;;;;;;;;;5104332;28;20016;-20
2020/12/17 11:13:19;;;;;;;8.07;4.72;;;;;;;;;;5107761;28;20034;-19
2020/12/17 11:15:46;;;;;;;9.45;5.00;;;;;;;;;;5108804;28;20599;-19
2020/12/17 11:18:13;;;;;;;8.55;4.57;;;;;;;;;;5107102;28;20501;-18
2020/12/17 11:20:39;;;;;;;9.55;5.20;;;;;;;;;;5108463;28;20461;-19
2020/12/17 11:23:05;;;;;;;10.98;5.07;;;;;;;;;;5108825;28;20032;-20
2020/12/17 11:25:36;;;;;;;11.95;4.78;;;;;;;;;;5111463;28;20077;-18
2020/12/17 11:28:01;;;;;;;11.90;5.68;;;;;;;;;;5111598;28;20020;-18
2020/12/17 11:30:27;;;;;;;6.72;4.90;;;;;;;;;;5113100;28;20081;-19
2020/12/17 11:32:52;;;;;;;7.32;5.05;;;;;;;;;;5112276;28;20428;-19
2020/12/17 11:35:18;;;;;;;9.15;6.15;;;;;;;;;;5107663;28;20731;-19
2020/12/17 11:37:43;;;;;;;9.85;5.90;;;;;;;;;;5092352;28;20456;-19
2020/12/17 11:40:09;;;;;;;9.25;5.68;;;;;;;;;;5092319;28;20031;-19
2020/12/17 11:42:34;;;;;;;10.43;5.80;;;;;;;;;;5092341;28;20077;-19
2020/12/17 11:45:00;;;;;;;8.73;5.35;;;;;;;;;;5092094;28;20074;-22
2020/12/17 11:47:25;;;;;;;9.55;5.60;;;;;;;;;;5092387;28;20036;-19
2020/12/17 11:49:51;;;;;;;9.15;5.60;;;;;;;;;;5092275;28;20123;-19
2020/12/17 11:52:17;;;;;;;7.43;5.57;;;;;;;;;;5091284;28;20024;-19
2020/12/17 11:54:42;;;;;;;11.50;6.13;;;;;;;;;;5092490;28;20697;-20
2020/12/17 11:57:10;;;;;;;8.13;5.65;;;;;;;;;;5092140;28;20049;-20
2020/12/17 11:59:35;;;;;;;8.20;5.78;;;;;;;;;;5092515;28;20028;-19
2020/12/17 12:02:01;;;;;;;9.73;5.53;;;;;;;;;;5092425;28;20024;-19
2020/12/17 12:04:26;;;;;;;8.25;5.50;;;;;;;;;;5091913;28;20470;-21
2020/12/17 12:06:51;;;;;;;9.05;5.45;;;;;;;;;;5091613;28;20036;-20
2020/12/17 12:09:19;;;;;;;7.95;5.32;;;;;;;;;;5092077;28;20016;-19
2020/12/17 12:11:46;;;;;;;8.50;5.55;;;;;;;;;;5099416;28;20032;-20
2020/12/17 12:14:12;;;;;;;6.03;4.32;;;;;;;;;;5112468;28;20426;-22
2020/12/17 12:16:37;;;;;;;9.32;5.50;;;;;;;;;;5112138;28;20466;-18
2020/12/17 12:19:03;;;;;;;8.05;4.95;;;;;;;;;;5111994;28;20031;-20
2020/12/17 12:21:28;;;;;;;6.85;4.80;;;;;;;;;;5112078;28;20055;-19
2020/12/17 12:23:54;;;;;;;8.65;5.70;;;;;;;;;;5112020;28;20401;-19
2020/12/17 12:26:19;;;;;;;9.40;5.13;;;;;;;;;;5111977;28;20043;-19
2020/12/17 12:28:45;;;;;;;8.98;5.30;;;;;;;;;;5111929;28;20027;-19
2020/12/17 12:31:13;;;;;;;9.07;4.90;;;;;;;;;;5111680;28;20058;-19
2020/12/17 12:33:38;;;;;;;8.13;5.22;;;;;;;;;;5112082;28;20027;-19
2020/12/17 12:36:05;;;;;;;10.48;5.55;;;;;;;;;;5110066;28;20028;-22
2020/12/17 12:38:30;;;;;;;9.73;4.88;;;;;;;;;;5112336;27;20019;-20
2020/12/17 12:40:56;;;;;;;6.55;3.97;;;;;;;;;;5111774;28;20474;-19
2020/12/17 12:43:21;;;;;;;15.60;5.20;;;;;;;;;;5111427;28;20075;-18
2020/12/17 12:45:47;;;;;;;10.52;5.90;;;;;;;;;;5111702;28;20039;-18
2020/12/17 12:48:12;;;;;;;7.15;5.00;;;;;;;;;;5110104;28;20085;-19
2020/12/17 12:50:38;;;;;;;6.93;4.82;;;;;;;;;;5111219;28;20051;-20
2020/12/17 12:53:04;;;;;;;7.05;5.35;;;;;;;;;;5107049;28;20028;-19
2020/12/17 12:55:29;;;;;;;8.02;5.88;;;;;;;;;;5090795;28;20432;-19
2020/12/17 12:57:55;;;;;;;10.20;6.10;;;;;;;;;;5090976;28;20016;-23
2020/12/17 13:00:20;;;;;;;7.43;5.45;;;;;;;;;;5089853;28;20060;-22
2020/12/17 13:02:46;;;;;;;9.20;5.80;;;;;;;;;;5090654;28;20103;-19
2020/12/17 13:05:11;;;;;;;8.27;5.70;;;;;;;;;;5090790;28;20032;-20
2020/12/17 13:07:37;;;;;;;8.73;5.60;;;;;;;;;;5090404;28;20020;-20
2020/12/17 13:10:03;;;;;;;11.15;7.43;;;;;;;;;;5090520;28;20390;-17
2020/12/17 13:12:28;;;;;;;11.88;6.40;;;;;;;;;;5104095;28;20537;-19
2020/12/17 13:14:54;;;;;;;14.63;5.90;;;;;;;;;;5110755;28;20136;-19
2020/12/17 13:17:19;;;;;;;11.23;6.78;;;;;;;;;;5110756;28;20631;-19
2020/12/17 13:19:45;;;;;;;9.98;6.35;;;;;;;;;;5110296;28;20031;-19
2020/12/17 13:22:10;;;;;;;9.32;5.70;;;;;;;;;;5109437;28;20008;-19
2020/12/17 13:24:36;;;;;;;8.55;5.25;;;;;;;;;;5110812;28;20061;-18
2020/12/17 13:27:01;;;;;;;9.57;6.00;;;;;;;;;;5110677;28;20028;-20
2020/12/17 13:29:27;;;;;;;8.05;5.53;;;;;;;;;;5110475;28;20032;-19
2020/12/17 13:31:53;;;;;;;10.63;6.30;;;;;;;;;;5109648;28;20050;-19
2020/12/17 13:34:18;;;;;;;9.63;5.88;;;;;;;;;;5108863;28;20020;-20
2020/12/17 13:36:44;;;;;;;8.15;5.50;;;;;;;;;;5109098;28;20129;-19
2020/12/17 13:39:10;;;;;;;10.23;5.60;;;;;;;;;;5110391;28;20509;-20
2020/12/17 13:41:36;;;;;;;9.35;5.97;;;;;;;;;;5110409;28;20065;-18
2020/12/17 13:44:01;;;;;;;11.23;6.05;;;;;;;;;;5109785;28;20533;-18
2020/12/17 13:46:27;;;;;;;10.57;5.78;;;;;;;;;;5108760;28;20063;-19
2020/12/17 13:48:52;;;;;;;11.85;6.68;;;;;;;;;;5101776;28;20020;-20
2020/12/17 13:51:19;;;;;;;9.75;6.20;;;;;;;;;;5109854;28;20051;-19
2020/12/17 13:53:44;;;;;;;10.52;6.00;;;;;;;;;;5108257;28;20053;-19
2020/12/17 13:56:10;;;;;;;9.93;6.30;;;;;;;;;;5109344;28;20412;-19
2020/12/17 13:58:35;;;;;;;8.40;6.22;;;;;;;;;;5109715;28;20062;-17
2020/12/17 14:01:01;;;;;;;11.30;6.95;;;;;;;;;;5109330;28;20019;-19
2020/12/17 14:03:26;;;;;;;8.40;5.85;;;;;;;;;;5090127;28;20375;-19
2020/12/17 14:05:52;;;;;;;12.20;6.30;;;;;;;;;;5089524;28;20024;-18
2020/12/17 14:08:17;;;;;;;7.93;5.22;;;;;;;;;;5089052;28;20019;-19
2020/12/17 14:10:44;;;;;;;7.15;4.85;;;;;;;;;;5089465;28;20020;-19
2020/12/17 14:13:09;;;;;;;9.90;6.20;;;;;;;;;;5089793;28;20479;-20
2020/12/17 14:15:35;;;;;;;8.88;5.28;;;;;;;;;;5089260;28;20039;-19
2020/12/17 14:18:00;;;;;;;10.70;6.40;;;;;;;;;;5088827;28;20028;-20
2020/12/17 14:20:26;;;;;;;12.65;7.70;;;;;;;;;;5088648;28;20019;-20
2020/12/17 14:22:51;;;;;;;17.55;7.97;;;;;;;;;;5089300;28;20030;-19
2020/12/17 14:25:16;;;;;;;16.52;9.90;;;;;;;;;;5089352;28;20024;-18
2020/12/17 14:27:42;;;;;;;17.13;11.57;;;;;;;;;;5089251;28;20375;-19
2020/12/17 14:30:08;;;;;;;15.25;8.68;;;;;;;;;;5100042;28;20064;-20
2020/12/17 14:32:33;;;;;;;15.38;8.20;;;;;;;;;;5107659;28;20128;-20
2020/12/17 14:34:59;;;;;;;12.70;7.20;;;;;;;;;;5109216;28;20019;-19